sensor_id;sensor_type;location;lat;lon;timestamp;pressure;altitude;pressure_sealevel;temperature;humidity
55077;BME280;40971;44.702;11.030;2023-11-19T00:06:55;102087.81;;;2.23;94.19
55077;BME280;40971;44.702;11.030;2023-11-19T00:16:59;102091.00;;;2.28;96.23
55077;BME280;40971;44.702;11.030;2023-11-19T00:27:00;102111.31;;;2.37;94.89
55077;BME280;40971;44.702;11.030;2023-11-19T00:37:02;102087.63;;;1.92;98.47
55077;BME280;40971;44.702;11.030;2023-11-19T00:47:05;102108.94;;;1.80;96.87
55077;BME280;40971;44.702;11.030;2023-11-19T00:57:06;102126.88;;;2.37;98.32
55077;BME280;40971;44.702;11.030;2023-11-19T01:07:07;102109.69;;;2.34;98.26
55077;BME280;40971;44.702;11.030;2023-11-19T01:17:10;102092.06;;;2.58;99.14
55077;BME280;40971;44.702;11.030;2023-11-19T01:27:12;102100.53;;;2.94;98.96
55077;BME280;40971;44.702;11.030;2023-11-19T01:37:13;102070.63;;;2.87;98.70
55077;BME280;40971;44.702;11.030;2023-11-19T01:47:15;102099.84;;;2.91;98.41
55077;BME280;40971;44.702;11.030;2023-11-19T01:57:18;102064.19;;;2.94;98.28
55077;BME280;40971;44.702;11.030;2023-11-19T02:07:21;102058.03;;;2.80;94.51
55077;BME280;40971;44.702;11.030;2023-11-19T02:17:30;102044.72;;;2.70;97.74
55077;BME280;40971;44.702;11.030;2023-11-19T02:27:52;102045.63;;;2.69;96.76
55077;BME280;40971;44.702;11.030;2023-11-19T02:37:56;102038.38;;;3.07;96.20
55077;BME280;40971;44.702;11.030;2023-11-19T02:47:59;102007.00;;;2.63;94.30
55077;BME280;40971;44.702;11.030;2023-11-19T02:58:04;102001.63;;;2.66;96.65
55077;BME280;40971;44.702;11.030;2023-11-19T03:08:21;101977.59;;;2.63;94.53
55077;BME280;40971;44.702;11.030;2023-11-19T03:18:24;101966.47;;;2.76;93.79
55077;BME280;40971;44.702;11.030;2023-11-19T03:28:24;101966.31;;;2.31;93.18
55077;BME280;40971;44.702;11.030;2023-11-19T03:38:26;101970.44;;;2.18;96.43
55077;BME280;40971;44.702;11.030;2023-11-19T03:48:26;101965.91;;;1.89;96.87
55077;BME280;40971;44.702;11.030;2023-11-19T03:58:27;101957.16;;;1.91;97.55
55077;BME280;40971;44.702;11.030;2023-11-19T04:08:28;101980.25;;;1.96;97.10
55077;BME280;40971;44.702;11.030;2023-11-19T04:18:30;101987.13;;;1.97;96.02
55077;BME280;40971;44.702;11.030;2023-11-19T04:28:33;101965.44;;;2.15;95.81
55077;BME280;40971;44.702;11.030;2023-11-19T04:38:35;101962.84;;;2.15;96.31
55077;BME280;40971;44.702;11.030;2023-11-19T04:48:37;101958.19;;;2.04;96.38
55077;BME280;40971;44.702;11.030;2023-11-19T04:58:39;101953.41;;;2.29;97.21
55077;BME280;40971;44.702;11.030;2023-11-19T05:08:39;101927.75;;;2.41;97.62
55077;BME280;40971;44.702;11.030;2023-11-19T05:18:41;101932.78;;;2.44;97.07
55077;BME280;40971;44.702;11.030;2023-11-19T05:28:43;101907.56;;;2.30;93.35
55077;BME280;40971;44.702;11.030;2023-11-19T05:38:45;101896.75;;;1.89;96.29
55077;BME280;40971;44.702;11.030;2023-11-19T05:48:46;101889.78;;;2.07;95.73
55077;BME280;40971;44.702;11.030;2023-11-19T05:58:48;101891.59;;;2.05;95.98
55077;BME280;40971;44.702;11.030;2023-11-19T06:08:51;101881.25;;;2.05;94.68
55077;BME280;40971;44.702;11.030;2023-11-19T06:18:53;101881.91;;;2.08;95.43
55077;BME280;40971;44.702;11.030;2023-11-19T06:28:57;101894.78;;;1.60;93.24
55077;BME280;40971;44.702;11.030;2023-11-19T06:38:58;101890.84;;;2.03;96.27
55077;BME280;40971;44.702;11.030;2023-11-19T06:49:02;101891.44;;;2.08;95.51
55077;BME280;40971;44.702;11.030;2023-11-19T06:59:04;101897.44;;;2.25;96.31
55077;BME280;40971;44.702;11.030;2023-11-19T07:09:05;101898.78;;;2.79;97.11
55077;BME280;40971;44.702;11.030;2023-11-19T07:19:13;101906.59;;;2.95;95.09
55077;BME280;40971;44.702;11.030;2023-11-19T07:29:15;101913.88;;;3.93;95.27
55077;BME280;40971;44.702;11.030;2023-11-19T07:39:18;101921.44;;;4.81;91.27
55077;BME280;40971;44.702;11.030;2023-11-19T07:49:19;101938.50;;;5.65;87.57
55077;BME280;40971;44.702;11.030;2023-11-19T07:59:21;101955.97;;;6.78;82.12
55077;BME280;40971;44.702;11.030;2023-11-19T08:09:23;101962.22;;;7.12;76.30
55077;BME280;40971;44.702;11.030;2023-11-19T08:19:25;101962.72;;;7.41;76.08
55077;BME280;40971;44.702;11.030;2023-11-19T08:29:27;101952.97;;;7.67;72.19
55077;BME280;40971;44.702;11.030;2023-11-19T08:39:29;101975.78;;;7.99;72.42
55077;BME280;40971;44.702;11.030;2023-11-19T08:49:31;101946.28;;;8.19;70.98
55077;BME280;40971;44.702;11.030;2023-11-19T08:59:32;101942.03;;;8.30;70.58
55077;BME280;40971;44.702;11.030;2023-11-19T09:09:33;101943.84;;;8.40;70.10
55077;BME280;40971;44.702;11.030;2023-11-19T09:19:38;101951.94;;;8.59;68.25
55077;BME280;40971;44.702;11.030;2023-11-19T09:29:39;101951.47;;;8.76;67.82
55077;BME280;40971;44.702;11.030;2023-11-19T09:39:43;101953.75;;;9.24;65.36
55077;BME280;40971;44.702;11.030;2023-11-19T09:49:46;101955.84;;;9.62;62.99
55077;BME280;40971;44.702;11.030;2023-11-19T09:59:48;101943.72;;;9.91;63.55
55077;BME280;40971;44.702;11.030;2023-11-19T10:09:53;101921.72;;;10.24;61.03
55077;BME280;40971;44.702;11.030;2023-11-19T10:19:55;101920.16;;;10.51;61.16
55077;BME280;40971;44.702;11.030;2023-11-19T10:29:59;101917.88;;;10.87;59.56
55077;BME280;40971;44.702;11.030;2023-11-19T10:40:00;101887.06;;;11.08;58.59
55077;BME280;40971;44.702;11.030;2023-11-19T10:50:04;101884.41;;;11.37;58.03
55077;BME280;40971;44.702;11.030;2023-11-19T11:00:08;101889.94;;;11.72;57.41
55077;BME280;40971;44.702;11.030;2023-11-19T11:10:16;101863.59;;;12.09;57.29
55077;BME280;40971;44.702;11.030;2023-11-19T11:20:21;101857.34;;;12.47;56.64
55077;BME280;40971;44.702;11.030;2023-11-19T11:40:30;101823.47;;;13.22;53.96
55077;BME280;40971;44.702;11.030;2023-11-19T11:50:34;101809.56;;;13.64;53.81
55077;BME280;40971;44.702;11.030;2023-11-19T12:00:40;101787.94;;;14.02;50.78
55077;BME280;40971;44.702;11.030;2023-11-19T12:10:50;101790.09;;;14.40;50.20
55077;BME280;40971;44.702;11.030;2023-11-19T12:20:53;101764.19;;;14.76;49.54
55077;BME280;40971;44.702;11.030;2023-11-19T12:31:08;101751.41;;;15.20;51.17
55077;BME280;40971;44.702;11.030;2023-11-19T12:41:13;101743.03;;;15.63;49.22
55077;BME280;40971;44.702;11.030;2023-11-19T12:51:15;101729.78;;;16.10;46.62
55077;BME280;40971;44.702;11.030;2023-11-19T13:01:19;101705.06;;;16.63;48.38
55077;BME280;40971;44.702;11.030;2023-11-19T13:11:32;101702.75;;;16.98;47.90
55077;BME280;40971;44.702;11.030;2023-11-19T13:21:35;101682.72;;;17.54;45.79
55077;BME280;40971;44.702;11.030;2023-11-19T13:31:40;101675.38;;;17.41;44.59
55077;BME280;40971;44.702;11.030;2023-11-19T13:41:42;101659.13;;;16.77;44.82
55077;BME280;40971;44.702;11.030;2023-11-19T13:51:45;101647.69;;;15.47;48.42
55077;BME280;40971;44.702;11.030;2023-11-19T14:01:48;101650.38;;;15.78;49.07
55077;BME280;40971;44.702;11.030;2023-11-19T14:11:52;101637.94;;;15.48;49.29
55077;BME280;40971;44.702;11.030;2023-11-19T14:21:53;101629.50;;;15.75;50.99
55077;BME280;40971;44.702;11.030;2023-11-19T14:31:55;101643.88;;;15.42;53.76
55077;BME280;40971;44.702;11.030;2023-11-19T14:41:59;101636.00;;;15.26;53.23
55077;BME280;40971;44.702;11.030;2023-11-19T14:52:05;101620.03;;;14.95;54.84
55077;BME280;40971;44.702;11.030;2023-11-19T15:02:09;101615.63;;;14.63;54.54
55077;BME280;40971;44.702;11.030;2023-11-19T15:12:12;101615.50;;;14.40;57.07
55077;BME280;40971;44.702;11.030;2023-11-19T15:22:13;101622.31;;;13.85;60.30
55077;BME280;40971;44.702;11.030;2023-11-19T15:32:17;101638.66;;;13.30;66.04
55077;BME280;40971;44.702;11.030;2023-11-19T15:42:19;101674.16;;;12.06;69.77
55077;BME280;40971;44.702;11.030;2023-11-19T15:52:20;101662.75;;;11.60;75.60
55077;BME280;40971;44.702;11.030;2023-11-19T16:02:23;101628.81;;;11.21;77.29
55077;BME280;40971;44.702;11.030;2023-11-19T16:12:26;101677.16;;;10.83;75.14
55077;BME280;40971;44.702;11.030;2023-11-19T16:22:27;101659.91;;;9.73;84.36
55077;BME280;40971;44.702;11.030;2023-11-19T16:32:28;101674.28;;;10.19;82.81
55077;BME280;40971;44.702;11.030;2023-11-19T16:42:30;101685.91;;;9.76;81.59
55077;BME280;40971;44.702;11.030;2023-11-19T16:52:31;101682.13;;;9.29;87.88
55077;BME280;40971;44.702;11.030;2023-11-19T17:02:33;101698.69;;;9.30;87.64
55077;BME280;40971;44.702;11.030;2023-11-19T17:12:35;101691.13;;;8.86;87.31
55077;BME280;40971;44.702;11.030;2023-11-19T17:22:39;101696.00;;;8.90;88.66
55077;BME280;40971;44.702;11.030;2023-11-19T17:32:42;101705.94;;;8.55;89.01
55077;BME280;40971;44.702;11.030;2023-11-19T17:42:43;101707.84;;;8.53;89.17
55077;BME280;40971;44.702;11.030;2023-11-19T17:52:46;101711.94;;;8.46;89.33
55077;BME280;40971;44.702;11.030;2023-11-19T18:02:48;101710.91;;;8.26;89.98
55077;BME280;40971;44.702;11.030;2023-11-19T18:12:51;101702.63;;;7.99;89.85
55077;BME280;40971;44.702;11.030;2023-11-19T18:22:53;101690.19;;;7.47;95.96
55077;BME280;40971;44.702;11.030;2023-11-19T18:32:56;101692.81;;;7.36;95.30
55077;BME280;40971;44.702;11.030;2023-11-19T18:42:57;101697.41;;;6.99;94.66
55077;BME280;40971;44.702;11.030;2023-11-19T18:53:01;101708.59;;;7.12;95.45
55077;BME280;40971;44.702;11.030;2023-11-19T19:03:04;101705.75;;;6.58;96.88
55077;BME280;40971;44.702;11.030;2023-11-19T19:13:07;101714.50;;;6.92;96.10
55077;BME280;40971;44.702;11.030;2023-11-19T19:23:10;101695.41;;;7.02;96.45
55077;BME280;40971;44.702;11.030;2023-11-19T19:33:12;101697.13;;;6.80;91.73
55077;BME280;40971;44.702;11.030;2023-11-19T19:43:14;101717.47;;;6.29;93.55
55077;BME280;40971;44.702;11.030;2023-11-19T19:53:18;101727.28;;;6.25;95.44
55077;BME280;40971;44.702;11.030;2023-11-19T20:03:19;101745.34;;;5.92;98.68
55077;BME280;40971;44.702;11.030;2023-11-19T20:13:22;101736.63;;;5.43;100.00
55077;BME280;40971;44.702;11.030;2023-11-19T20:23:26;101712.50;;;5.77;98.91
55077;BME280;40971;44.702;11.030;2023-11-19T20:33:31;101706.00;;;5.82;99.62
55077;BME280;40971;44.702;11.030;2023-11-19T20:43:35;101731.13;;;5.35;95.99
55077;BME280;40971;44.702;11.030;2023-11-19T20:53:38;101733.69;;;5.47;96.83
55077;BME280;40971;44.702;11.030;2023-11-19T21:03:40;101718.38;;;5.17;96.98
55077;BME280;40971;44.702;11.030;2023-11-19T21:13:43;101730.38;;;5.33;97.99
55077;BME280;40971;44.702;11.030;2023-11-19T21:23:48;101725.47;;;5.03;98.21
55077;BME280;40971;44.702;11.030;2023-11-19T21:33:49;101699.78;;;4.05;94.75
55077;BME280;40971;44.702;11.030;2023-11-19T21:43:51;101704.44;;;4.27;100.00
55077;BME280;40971;44.702;11.030;2023-11-19T21:53:53;101696.44;;;4.57;100.00
55077;BME280;40971;44.702;11.030;2023-11-19T22:03:58;101681.84;;;4.67;100.00
55077;BME280;40971;44.702;11.030;2023-11-19T22:14:00;101687.44;;;4.48;99.91
55077;BME280;40971;44.702;11.030;2023-11-19T22:24:05;101687.88;;;4.16;98.47
55077;BME280;40971;44.702;11.030;2023-11-19T22:34:07;101674.53;;;4.07;99.09
55077;BME280;40971;44.702;11.030;2023-11-19T22:44:08;101681.28;;;4.10;99.72
55077;BME280;40971;44.702;11.030;2023-11-19T22:54:11;101669.78;;;4.00;99.80
55077;BME280;40971;44.702;11.030;2023-11-19T23:04:12;101652.41;;;3.74;100.00
55077;BME280;40971;44.702;11.030;2023-11-19T23:14:14;101656.63;;;3.48;100.00
55077;BME280;40971;44.702;11.030;2023-11-19T23:24:16;101646.97;;;3.50;100.00
55077;BME280;40971;44.702;11.030;2023-11-19T23:34:18;101645.88;;;3.26;100.00
55077;BME280;40971;44.702;11.030;2023-11-19T23:44:21;101633.50;;;3.43;100.00
55077;BME280;40971;44.702;11.030;2023-11-19T23:54:23;101640.28;;;3.60;100.00
